sensor_id;sensor_type;location;lat;lon;timestamp;P1;durP1;ratioP1;P2;durP2;ratioP2
23001;SDS011;11667;51.706;4.856;2022-08-05T00:01:53;10.82;;;5.37;;
23001;SDS011;11667;51.706;4.856;2022-08-05T00:04:24;12.30;;;6.08;;
23001;SDS011;11667;51.706;4.856;2022-08-05T00:06:53;10.63;;;5.65;;
23001;SDS011;11667;51.706;4.856;2022-08-05T00:09:22;8.93;;;5.47;;
23001;SDS011;11667;51.706;4.856;2022-08-05T00:11:53;11.90;;;5.60;;
23001;SDS011;11667;51.706;4.856;2022-08-05T00:14:24;14.63;;;5.35;;
23001;SDS011;11667;51.706;4.856;2022-08-05T00:16:56;12.23;;;5.70;;
23001;SDS011;11667;51.706;4.856;2022-08-05T00:19:27;11.55;;;5.58;;
23001;SDS011;11667;51.706;4.856;2022-08-05T00:21:58;10.45;;;5.47;;
23001;SDS011;11667;51.706;4.856;2022-08-05T00:24:27;13.05;;;5.72;;
23001;SDS011;11667;51.706;4.856;2022-08-05T00:26:58;13.62;;;5.47;;
23001;SDS011;11667;51.706;4.856;2022-08-05T00:29:29;16.45;;;5.60;;
23001;SDS011;11667;51.706;4.856;2022-08-05T00:32:00;13.35;;;5.60;;
23001;SDS011;11667;51.706;4.856;2022-08-05T00:34:32;15.48;;;5.97;;
23001;SDS011;11667;51.706;4.856;2022-08-05T00:37:03;16.02;;;6.00;;
23001;SDS011;11667;51.706;4.856;2022-08-05T00:39:34;13.80;;;6.08;;
23001;SDS011;11667;51.706;4.856;2022-08-05T00:42:06;13.28;;;5.90;;
23001;SDS011;11667;51.706;4.856;2022-08-05T00:44:35;14.53;;;6.20;;
23001;SDS011;11667;51.706;4.856;2022-08-05T00:47:04;15.03;;;6.50;;
23001;SDS011;11667;51.706;4.856;2022-08-05T00:49:36;14.18;;;6.25;;
23001;SDS011;11667;51.706;4.856;2022-08-05T00:52:07;15.15;;;6.20;;
23001;SDS011;11667;51.706;4.856;2022-08-05T00:54:37;15.95;;;6.65;;
23001;SDS011;11667;51.706;4.856;2022-08-05T00:57:08;15.28;;;6.22;;
23001;SDS011;11667;51.706;4.856;2022-08-05T00:59:38;14.38;;;6.50;;
23001;SDS011;11667;51.706;4.856;2022-08-05T01:02:09;12.63;;;6.00;;
23001;SDS011;11667;51.706;4.856;2022-08-05T01:04:40;12.82;;;6.83;;
23001;SDS011;11667;51.706;4.856;2022-08-05T01:07:10;12.30;;;6.37;;
23001;SDS011;11667;51.706;4.856;2022-08-05T01:09:40;14.68;;;6.75;;
23001;SDS011;11667;51.706;4.856;2022-08-05T01:12:11;14.65;;;6.90;;
23001;SDS011;11667;51.706;4.856;2022-08-05T01:17:26;17.05;;;7.00;;
23001;SDS011;11667;51.706;4.856;2022-08-05T01:22:53;16.17;;;6.60;;
23001;SDS011;11667;51.706;4.856;2022-08-05T01:31:04;16.75;;;7.67;;
23001;SDS011;11667;51.706;4.856;2022-08-05T01:33:36;14.07;;;6.60;;
23001;SDS011;11667;51.706;4.856;2022-08-05T01:36:14;13.85;;;6.65;;
23001;SDS011;11667;51.706;4.856;2022-08-05T01:38:46;18.02;;;7.00;;
23001;SDS011;11667;51.706;4.856;2022-08-05T01:41:19;11.00;;;6.37;;
23001;SDS011;11667;51.706;4.856;2022-08-05T01:43:51;13.72;;;6.85;;
23001;SDS011;11667;51.706;4.856;2022-08-05T01:46:23;15.03;;;6.83;;
23001;SDS011;11667;51.706;4.856;2022-08-05T01:48:54;15.00;;;7.40;;
23001;SDS011;11667;51.706;4.856;2022-08-05T01:51:25;16.85;;;6.55;;
23001;SDS011;11667;51.706;4.856;2022-08-05T01:53:56;12.73;;;7.33;;
23001;SDS011;11667;51.706;4.856;2022-08-05T01:56:29;12.00;;;6.53;;
23001;SDS011;11667;51.706;4.856;2022-08-05T01:59:02;14.07;;;6.95;;
23001;SDS011;11667;51.706;4.856;2022-08-05T02:01:34;15.05;;;6.97;;
23001;SDS011;11667;51.706;4.856;2022-08-05T02:04:06;14.15;;;7.05;;
23001;SDS011;11667;51.706;4.856;2022-08-05T02:06:37;12.88;;;6.90;;
23001;SDS011;11667;51.706;4.856;2022-08-05T02:09:08;15.40;;;7.40;;
23001;SDS011;11667;51.706;4.856;2022-08-05T02:11:55;15.43;;;7.50;;
23001;SDS011;11667;51.706;4.856;2022-08-05T02:14:31;13.30;;;7.67;;
23001;SDS011;11667;51.706;4.856;2022-08-05T02:17:04;15.32;;;6.78;;
23001;SDS011;11667;51.706;4.856;2022-08-05T02:19:43;13.58;;;7.12;;
23001;SDS011;11667;51.706;4.856;2022-08-05T02:22:20;13.62;;;7.47;;
23001;SDS011;11667;51.706;4.856;2022-08-05T02:24:55;12.40;;;7.42;;
23001;SDS011;11667;51.706;4.856;2022-08-05T02:27:26;17.85;;;7.55;;
23001;SDS011;11667;51.706;4.856;2022-08-05T02:29:59;18.70;;;7.67;;
23001;SDS011;11667;51.706;4.856;2022-08-05T02:32:30;15.58;;;7.47;;
23001;SDS011;11667;51.706;4.856;2022-08-05T02:35:02;15.32;;;7.65;;
23001;SDS011;11667;51.706;4.856;2022-08-05T02:37:34;14.10;;;7.70;;
23001;SDS011;11667;51.706;4.856;2022-08-05T02:40:05;13.62;;;7.50;;
23001;SDS011;11667;51.706;4.856;2022-08-05T02:42:36;11.88;;;6.83;;
23001;SDS011;11667;51.706;4.856;2022-08-05T02:45:07;14.85;;;6.72;;
23001;SDS011;11667;51.706;4.856;2022-08-05T02:47:38;12.33;;;6.60;;
23001;SDS011;11667;51.706;4.856;2022-08-05T02:50:09;14.53;;;6.30;;
23001;SDS011;11667;51.706;4.856;2022-08-05T02:52:42;12.35;;;6.00;;
23001;SDS011;11667;51.706;4.856;2022-08-05T02:55:12;11.40;;;5.92;;
23001;SDS011;11667;51.706;4.856;2022-08-05T02:57:43;12.43;;;6.12;;
23001;SDS011;11667;51.706;4.856;2022-08-05T03:00:15;12.10;;;5.90;;
23001;SDS011;11667;51.706;4.856;2022-08-05T03:02:45;12.28;;;6.40;;
23001;SDS011;11667;51.706;4.856;2022-08-05T03:05:15;13.15;;;6.53;;
23001;SDS011;11667;51.706;4.856;2022-08-05T03:07:46;11.78;;;6.33;;
23001;SDS011;11667;51.706;4.856;2022-08-05T03:10:18;11.47;;;5.83;;
23001;SDS011;11667;51.706;4.856;2022-08-05T03:12:49;16.62;;;6.08;;
23001;SDS011;11667;51.706;4.856;2022-08-05T03:15:19;10.60;;;6.00;;
23001;SDS011;11667;51.706;4.856;2022-08-05T03:17:51;14.35;;;6.67;;
23001;SDS011;11667;51.706;4.856;2022-08-05T03:20:23;12.23;;;6.03;;
23001;SDS011;11667;51.706;4.856;2022-08-05T03:22:53;12.18;;;5.97;;
23001;SDS011;11667;51.706;4.856;2022-08-05T03:25:24;11.85;;;5.55;;
23001;SDS011;11667;51.706;4.856;2022-08-05T03:27:56;14.10;;;5.80;;
23001;SDS011;11667;51.706;4.856;2022-08-05T03:30:27;11.80;;;5.90;;
23001;SDS011;11667;51.706;4.856;2022-08-05T03:33:00;11.85;;;5.40;;
23001;SDS011;11667;51.706;4.856;2022-08-05T03:35:32;10.60;;;5.05;;
23001;SDS011;11667;51.706;4.856;2022-08-05T03:38:03;10.10;;;5.75;;
23001;SDS011;11667;51.706;4.856;2022-08-05T03:40:33;9.68;;;5.50;;
23001;SDS011;11667;51.706;4.856;2022-08-05T03:43:04;11.68;;;6.03;;
23001;SDS011;11667;51.706;4.856;2022-08-05T03:45:35;11.53;;;5.08;;
23001;SDS011;11667;51.706;4.856;2022-08-05T03:48:06;9.75;;;6.22;;
23001;SDS011;11667;51.706;4.856;2022-08-05T03:50:42;9.50;;;5.87;;
23001;SDS011;11667;51.706;4.856;2022-08-05T03:53:18;10.95;;;5.80;;
23001;SDS011;11667;51.706;4.856;2022-08-05T03:55:59;11.70;;;5.40;;
23001;SDS011;11667;51.706;4.856;2022-08-05T03:58:27;10.72;;;5.70;;
23001;SDS011;11667;51.706;4.856;2022-08-05T04:00:58;13.88;;;5.90;;
23001;SDS011;11667;51.706;4.856;2022-08-05T04:03:30;10.35;;;6.20;;
23001;SDS011;11667;51.706;4.856;2022-08-05T04:06:04;10.90;;;6.00;;
23001;SDS011;11667;51.706;4.856;2022-08-05T04:08:35;11.25;;;6.03;;
23001;SDS011;11667;51.706;4.856;2022-08-05T04:11:05;14.90;;;6.42;;
23001;SDS011;11667;51.706;4.856;2022-08-05T04:13:39;13.08;;;6.95;;
23001;SDS011;11667;51.706;4.856;2022-08-05T04:16:11;14.07;;;6.67;;
23001;SDS011;11667;51.706;4.856;2022-08-05T04:18:43;10.85;;;6.40;;
23001;SDS011;11667;51.706;4.856;2022-08-05T04:21:15;12.53;;;6.62;;
23001;SDS011;11667;51.706;4.856;2022-08-05T04:23:46;11.40;;;6.65;;
23001;SDS011;11667;51.706;4.856;2022-08-05T04:26:17;12.40;;;6.28;;
23001;SDS011;11667;51.706;4.856;2022-08-05T04:28:46;13.00;;;6.40;;
23001;SDS011;11667;51.706;4.856;2022-08-05T04:31:18;11.43;;;6.00;;
23001;SDS011;11667;51.706;4.856;2022-08-05T04:33:47;10.50;;;6.10;;
23001;SDS011;11667;51.706;4.856;2022-08-05T04:36:18;13.85;;;5.95;;
23001;SDS011;11667;51.706;4.856;2022-08-05T04:38:49;13.50;;;6.60;;
23001;SDS011;11667;51.706;4.856;2022-08-05T04:41:22;12.25;;;6.37;;
23001;SDS011;11667;51.706;4.856;2022-08-05T04:43:53;14.00;;;6.22;;
23001;SDS011;11667;51.706;4.856;2022-08-05T04:46:23;10.80;;;6.45;;
23001;SDS011;11667;51.706;4.856;2022-08-05T04:48:54;13.70;;;6.60;;
23001;SDS011;11667;51.706;4.856;2022-08-05T04:51:25;9.43;;;6.58;;
23001;SDS011;11667;51.706;4.856;2022-08-05T04:53:57;12.82;;;6.20;;
23001;SDS011;11667;51.706;4.856;2022-08-05T04:56:28;12.50;;;5.75;;
23001;SDS011;11667;51.706;4.856;2022-08-05T04:58:59;12.33;;;6.03;;
23001;SDS011;11667;51.706;4.856;2022-08-05T05:01:30;11.12;;;5.80;;
23001;SDS011;11667;51.706;4.856;2022-08-05T05:04:01;9.60;;;5.22;;
23001;SDS011;11667;51.706;4.856;2022-08-05T05:06:31;11.40;;;5.25;;
23001;SDS011;11667;51.706;4.856;2022-08-05T05:09:02;9.40;;;4.92;;
23001;SDS011;11667;51.706;4.856;2022-08-05T05:11:32;13.28;;;5.20;;
23001;SDS011;11667;51.706;4.856;2022-08-05T05:14:03;10.45;;;5.03;;
23001;SDS011;11667;51.706;4.856;2022-08-05T05:16:34;9.30;;;4.77;;
23001;SDS011;11667;51.706;4.856;2022-08-05T05:19:06;11.18;;;4.60;;
23001;SDS011;11667;51.706;4.856;2022-08-05T05:21:37;7.83;;;4.33;;
23001;SDS011;11667;51.706;4.856;2022-08-05T05:24:06;10.85;;;4.85;;
23001;SDS011;11667;51.706;4.856;2022-08-05T05:26:35;7.35;;;4.67;;
23001;SDS011;11667;51.706;4.856;2022-08-05T05:29:06;9.38;;;4.75;;
23001;SDS011;11667;51.706;4.856;2022-08-05T05:31:37;10.70;;;4.50;;
23001;SDS011;11667;51.706;4.856;2022-08-05T05:34:05;9.30;;;4.53;;
23001;SDS011;11667;51.706;4.856;2022-08-05T05:36:35;7.95;;;4.40;;
23001;SDS011;11667;51.706;4.856;2022-08-05T05:39:05;6.87;;;4.28;;
23001;SDS011;11667;51.706;4.856;2022-08-05T05:41:36;8.18;;;4.40;;
23001;SDS011;11667;51.706;4.856;2022-08-05T05:44:07;8.88;;;4.33;;
23001;SDS011;11667;51.706;4.856;2022-08-05T05:46:38;7.67;;;4.42;;
23001;SDS011;11667;51.706;4.856;2022-08-05T05:49:09;8.33;;;4.47;;
23001;SDS011;11667;51.706;4.856;2022-08-05T05:51:40;10.15;;;4.10;;
23001;SDS011;11667;51.706;4.856;2022-08-05T05:54:11;9.60;;;3.98;;
23001;SDS011;11667;51.706;4.856;2022-08-05T05:56:43;11.05;;;4.15;;
23001;SDS011;11667;51.706;4.856;2022-08-05T05:59:13;6.92;;;4.00;;
23001;SDS011;11667;51.706;4.856;2022-08-05T06:01:43;9.30;;;4.00;;
23001;SDS011;11667;51.706;4.856;2022-08-05T06:04:14;6.75;;;3.95;;
23001;SDS011;11667;51.706;4.856;2022-08-05T06:06:43;6.55;;;3.80;;
23001;SDS011;11667;51.706;4.856;2022-08-05T06:09:14;7.80;;;4.03;;
23001;SDS011;11667;51.706;4.856;2022-08-05T06:11:46;6.72;;;3.70;;
23001;SDS011;11667;51.706;4.856;2022-08-05T06:14:17;6.58;;;4.00;;
23001;SDS011;11667;51.706;4.856;2022-08-05T06:16:46;9.03;;;3.75;;
23001;SDS011;11667;51.706;4.856;2022-08-05T06:19:15;7.25;;;3.90;;
23001;SDS011;11667;51.706;4.856;2022-08-05T06:21:47;9.63;;;4.33;;
23001;SDS011;11667;51.706;4.856;2022-08-05T06:24:18;9.78;;;4.12;;
23001;SDS011;11667;51.706;4.856;2022-08-05T06:26:49;7.05;;;3.90;;
23001;SDS011;11667;51.706;4.856;2022-08-05T06:29:20;6.53;;;4.05;;
23001;SDS011;11667;51.706;4.856;2022-08-05T06:31:51;5.08;;;3.90;;
23001;SDS011;11667;51.706;4.856;2022-08-05T06:34:23;9.38;;;3.92;;
23001;SDS011;11667;51.706;4.856;2022-08-05T06:36:54;6.30;;;3.80;;
23001;SDS011;11667;51.706;4.856;2022-08-05T06:39:25;10.20;;;4.35;;
23001;SDS011;11667;51.706;4.856;2022-08-05T06:42:00;6.65;;;3.87;;
23001;SDS011;11667;51.706;4.856;2022-08-05T06:44:29;6.05;;;3.52;;
23001;SDS011;11667;51.706;4.856;2022-08-05T06:46:59;8.35;;;3.58;;
23001;SDS011;11667;51.706;4.856;2022-08-05T06:49:29;5.47;;;3.10;;
23001;SDS011;11667;51.706;4.856;2022-08-05T06:52:00;6.87;;;3.30;;
23001;SDS011;11667;51.706;4.856;2022-08-05T06:54:30;4.92;;;2.90;;
23001;SDS011;11667;51.706;4.856;2022-08-05T06:57:01;6.40;;;2.65;;
23001;SDS011;11667;51.706;4.856;2022-08-05T06:59:31;5.42;;;2.70;;
23001;SDS011;11667;51.706;4.856;2022-08-05T07:02:02;5.55;;;3.00;;
23001;SDS011;11667;51.706;4.856;2022-08-05T07:04:32;4.62;;;2.50;;
23001;SDS011;11667;51.706;4.856;2022-08-05T07:07:02;4.80;;;2.55;;
23001;SDS011;11667;51.706;4.856;2022-08-05T07:09:34;4.72;;;2.42;;
23001;SDS011;11667;51.706;4.856;2022-08-05T07:12:05;5.95;;;2.20;;
23001;SDS011;11667;51.706;4.856;2022-08-05T07:14:34;5.20;;;2.40;;
23001;SDS011;11667;51.706;4.856;2022-08-05T07:17:22;6.05;;;2.70;;
23001;SDS011;11667;51.706;4.856;2022-08-05T07:19:53;5.20;;;2.33;;
23001;SDS011;11667;51.706;4.856;2022-08-05T07:22:24;3.65;;;2.00;;
23001;SDS011;11667;51.706;4.856;2022-08-05T07:25:00;4.37;;;2.12;;
23001;SDS011;11667;51.706;4.856;2022-08-05T07:27:30;5.53;;;2.15;;
23001;SDS011;11667;51.706;4.856;2022-08-05T07:30:00;7.87;;;2.35;;
23001;SDS011;11667;51.706;4.856;2022-08-05T07:32:35;6.15;;;2.22;;
23001;SDS011;11667;51.706;4.856;2022-08-05T07:35:06;6.05;;;2.52;;
23001;SDS011;11667;51.706;4.856;2022-08-05T07:37:38;5.87;;;2.27;;
23001;SDS011;11667;51.706;4.856;2022-08-05T07:40:09;6.15;;;2.27;;
23001;SDS011;11667;51.706;4.856;2022-08-05T07:42:41;4.00;;;1.90;;
23001;SDS011;11667;51.706;4.856;2022-08-05T07:45:10;4.33;;;1.87;;
23001;SDS011;11667;51.706;4.856;2022-08-05T07:47:41;4.70;;;1.85;;
23001;SDS011;11667;51.706;4.856;2022-08-05T07:50:12;3.87;;;1.90;;
23001;SDS011;11667;51.706;4.856;2022-08-05T07:52:43;4.87;;;1.77;;
23001;SDS011;11667;51.706;4.856;2022-08-05T07:55:14;5.37;;;1.90;;
23001;SDS011;11667;51.706;4.856;2022-08-05T07:57:45;5.03;;;1.90;;
23001;SDS011;11667;51.706;4.856;2022-08-05T08:00:16;3.50;;;1.90;;
23001;SDS011;11667;51.706;4.856;2022-08-05T08:02:45;3.12;;;1.85;;
23001;SDS011;11667;51.706;4.856;2022-08-05T08:05:16;4.05;;;2.00;;
23001;SDS011;11667;51.706;4.856;2022-08-05T08:07:45;3.20;;;1.60;;
23001;SDS011;11667;51.706;4.856;2022-08-05T08:10:16;2.98;;;1.40;;
23001;SDS011;11667;51.706;4.856;2022-08-05T08:12:47;3.12;;;1.30;;
23001;SDS011;11667;51.706;4.856;2022-08-05T08:15:17;3.40;;;1.12;;
23001;SDS011;11667;51.706;4.856;2022-08-05T08:17:48;2.37;;;1.05;;
23001;SDS011;11667;51.706;4.856;2022-08-05T08:20:20;2.92;;;1.25;;
23001;SDS011;11667;51.706;4.856;2022-08-05T08:22:52;1.95;;;1.10;;
23001;SDS011;11667;51.706;4.856;2022-08-05T08:25:23;4.53;;;1.30;;
23001;SDS011;11667;51.706;4.856;2022-08-05T08:27:54;2.60;;;1.23;;
23001;SDS011;11667;51.706;4.856;2022-08-05T08:30:26;2.33;;;1.60;;
23001;SDS011;11667;51.706;4.856;2022-08-05T08:32:57;4.55;;;1.20;;
23001;SDS011;11667;51.706;4.856;2022-08-05T08:35:28;2.05;;;0.98;;
23001;SDS011;11667;51.706;4.856;2022-08-05T08:37:59;5.12;;;1.10;;
23001;SDS011;11667;51.706;4.856;2022-08-05T08:40:30;3.72;;;1.10;;
23001;SDS011;11667;51.706;4.856;2022-08-05T08:43:02;1.90;;;1.00;;
23001;SDS011;11667;51.706;4.856;2022-08-05T08:45:33;1.70;;;0.90;;
23001;SDS011;11667;51.706;4.856;2022-08-05T08:48:04;3.15;;;0.90;;
23001;SDS011;11667;51.706;4.856;2022-08-05T08:50:36;0.95;;;0.80;;
23001;SDS011;11667;51.706;4.856;2022-08-05T08:53:09;1.67;;;0.90;;
23001;SDS011;11667;51.706;4.856;2022-08-05T08:55:39;2.55;;;0.70;;
23001;SDS011;11667;51.706;4.856;2022-08-05T08:58:10;1.32;;;0.80;;
23001;SDS011;11667;51.706;4.856;2022-08-05T09:00:43;2.52;;;1.15;;
23001;SDS011;11667;51.706;4.856;2022-08-05T09:03:14;2.67;;;1.00;;
23001;SDS011;11667;51.706;4.856;2022-08-05T09:05:46;1.47;;;1.00;;
23001;SDS011;11667;51.706;4.856;2022-08-05T09:08:17;2.65;;;1.10;;
23001;SDS011;11667;51.706;4.856;2022-08-05T09:10:48;2.00;;;1.00;;
23001;SDS011;11667;51.706;4.856;2022-08-05T09:13:19;3.55;;;1.10;;
23001;SDS011;11667;51.706;4.856;2022-08-05T09:15:50;2.52;;;1.15;;
23001;SDS011;11667;51.706;4.856;2022-08-05T09:18:21;2.10;;;0.90;;
23001;SDS011;11667;51.706;4.856;2022-08-05T09:20:51;1.72;;;0.80;;
23001;SDS011;11667;51.706;4.856;2022-08-05T09:23:22;1.72;;;0.80;;
23001;SDS011;11667;51.706;4.856;2022-08-05T09:26:04;5.08;;;0.90;;
23001;SDS011;11667;51.706;4.856;2022-08-05T09:28:42;1.70;;;0.90;;
23001;SDS011;11667;51.706;4.856;2022-08-05T09:31:13;3.33;;;1.00;;
23001;SDS011;11667;51.706;4.856;2022-08-05T09:33:52;3.20;;;0.88;;
23001;SDS011;11667;51.706;4.856;2022-08-05T09:36:17;3.58;;;0.95;;
23001;SDS011;11667;51.706;4.856;2022-08-05T09:38:56;1.87;;;0.90;;
23001;SDS011;11667;51.706;4.856;2022-08-05T09:41:28;2.27;;;0.80;;
23001;SDS011;11667;51.706;4.856;2022-08-05T09:43:59;2.22;;;0.70;;
23001;SDS011;11667;51.706;4.856;2022-08-05T09:46:31;1.95;;;0.78;;
23001;SDS011;11667;51.706;4.856;2022-08-05T09:49:01;1.80;;;0.85;;
23001;SDS011;11667;51.706;4.856;2022-08-05T09:51:37;4.45;;;0.90;;
23001;SDS011;11667;51.706;4.856;2022-08-05T09:54:08;2.15;;;1.20;;
23001;SDS011;11667;51.706;4.856;2022-08-05T09:56:41;2.20;;;1.20;;
23001;SDS011;11667;51.706;4.856;2022-08-05T09:59:14;3.05;;;1.40;;
23001;SDS011;11667;51.706;4.856;2022-08-05T10:01:44;3.42;;;1.22;;
23001;SDS011;11667;51.706;4.856;2022-08-05T10:04:14;2.62;;;1.20;;
23001;SDS011;11667;51.706;4.856;2022-08-05T10:06:55;2.22;;;1.10;;
23001;SDS011;11667;51.706;4.856;2022-08-05T10:09:26;2.95;;;1.17;;
23001;SDS011;11667;51.706;4.856;2022-08-05T10:12:07;3.50;;;1.20;;
23001;SDS011;11667;51.706;4.856;2022-08-05T10:14:39;13.95;;;1.20;;
23001;SDS011;11667;51.706;4.856;2022-08-05T10:17:14;3.27;;;1.00;;
23001;SDS011;11667;51.706;4.856;2022-08-05T10:19:45;2.40;;;0.95;;
23001;SDS011;11667;51.706;4.856;2022-08-05T10:22:16;5.22;;;1.10;;
23001;SDS011;11667;51.706;4.856;2022-08-05T10:24:47;2.62;;;0.90;;
23001;SDS011;11667;51.706;4.856;2022-08-05T10:27:17;5.28;;;0.90;;
23001;SDS011;11667;51.706;4.856;2022-08-05T10:29:48;1.57;;;0.80;;
23001;SDS011;11667;51.706;4.856;2022-08-05T10:32:19;2.72;;;0.80;;
23001;SDS011;11667;51.706;4.856;2022-08-05T10:34:50;2.72;;;0.85;;
23001;SDS011;11667;51.706;4.856;2022-08-05T10:37:21;2.90;;;0.93;;
23001;SDS011;11667;51.706;4.856;2022-08-05T10:39:52;3.22;;;0.82;;
23001;SDS011;11667;51.706;4.856;2022-08-05T10:42:24;10.55;;;1.25;;
23001;SDS011;11667;51.706;4.856;2022-08-05T10:44:57;221.10;;;9.83;;
23001;SDS011;11667;51.706;4.856;2022-08-05T10:47:30;5.92;;;1.27;;
23001;SDS011;11667;51.706;4.856;2022-08-05T10:50:05;4.78;;;0.90;;
23001;SDS011;11667;51.706;4.856;2022-08-05T10:52:43;3.10;;;1.00;;
23001;SDS011;11667;51.706;4.856;2022-08-05T10:55:23;5.12;;;0.85;;
23001;SDS011;11667;51.706;4.856;2022-08-05T10:58:10;2.15;;;0.80;;
23001;SDS011;11667;51.706;4.856;2022-08-05T11:00:37;3.15;;;0.82;;
23001;SDS011;11667;51.706;4.856;2022-08-05T11:03:11;1.77;;;0.70;;
23001;SDS011;11667;51.706;4.856;2022-08-05T11:05:43;2.25;;;0.70;;
23001;SDS011;11667;51.706;4.856;2022-08-05T11:08:16;2.02;;;0.70;;
23001;SDS011;11667;51.706;4.856;2022-08-05T11:10:47;2.42;;;0.80;;
23001;SDS011;11667;51.706;4.856;2022-08-05T11:13:38;2.75;;;0.80;;
23001;SDS011;11667;51.706;4.856;2022-08-05T11:16:20;1.95;;;0.72;;
23001;SDS011;11667;51.706;4.856;2022-08-05T11:22:36;2.20;;;0.70;;
23001;SDS011;11667;51.706;4.856;2022-08-05T11:25:25;1.57;;;0.60;;
23001;SDS011;11667;51.706;4.856;2022-08-05T11:27:29;1.95;;;0.70;;
23001;SDS011;11667;51.706;4.856;2022-08-05T11:30:01;3.17;;;0.62;;
23001;SDS011;11667;51.706;4.856;2022-08-05T11:32:31;3.85;;;0.70;;
23001;SDS011;11667;51.706;4.856;2022-08-05T11:35:02;1.85;;;0.55;;
23001;SDS011;11667;51.706;4.856;2022-08-05T11:41:12;2.80;;;0.60;;
23001;SDS011;11667;51.706;4.856;2022-08-05T11:43:19;4.30;;;0.70;;
23001;SDS011;11667;51.706;4.856;2022-08-05T11:45:50;2.65;;;0.68;;
23001;SDS011;11667;51.706;4.856;2022-08-05T11:48:22;1.57;;;0.60;;
23001;SDS011;11667;51.706;4.856;2022-08-05T11:50:52;2.02;;;0.60;;
23001;SDS011;11667;51.706;4.856;2022-08-05T11:53:21;3.75;;;0.60;;
23001;SDS011;11667;51.706;4.856;2022-08-05T11:55:51;1.98;;;0.60;;
23001;SDS011;11667;51.706;4.856;2022-08-05T11:58:35;2.50;;;0.93;;
23001;SDS011;11667;51.706;4.856;2022-08-05T12:01:12;4.95;;;0.70;;
23001;SDS011;11667;51.706;4.856;2022-08-05T12:03:44;1.40;;;0.60;;
23001;SDS011;11667;51.706;4.856;2022-08-05T12:06:23;1.42;;;0.65;;
23001;SDS011;11667;51.706;4.856;2022-08-05T12:08:56;1.22;;;0.60;;
23001;SDS011;11667;51.706;4.856;2022-08-05T12:11:28;2.58;;;0.70;;
23001;SDS011;11667;51.706;4.856;2022-08-05T12:14:00;2.10;;;0.70;;
23001;SDS011;11667;51.706;4.856;2022-08-05T12:16:31;1.32;;;0.60;;
23001;SDS011;11667;51.706;4.856;2022-08-05T12:19:07;2.22;;;0.60;;
23001;SDS011;11667;51.706;4.856;2022-08-05T12:21:44;1.62;;;0.60;;
23001;SDS011;11667;51.706;4.856;2022-08-05T12:24:19;1.72;;;0.55;;
23001;SDS011;11667;51.706;4.856;2022-08-05T12:26:51;1.55;;;0.60;;
23001;SDS011;11667;51.706;4.856;2022-08-05T12:29:24;1.40;;;0.57;;
23001;SDS011;11667;51.706;4.856;2022-08-05T12:31:58;3.80;;;0.70;;
23001;SDS011;11667;51.706;4.856;2022-08-05T12:34:30;1.52;;;0.80;;
23001;SDS011;11667;51.706;4.856;2022-08-05T12:37:05;1.67;;;0.60;;
23001;SDS011;11667;51.706;4.856;2022-08-05T12:39:37;1.27;;;0.60;;
23001;SDS011;11667;51.706;4.856;2022-08-05T12:42:12;1.70;;;0.55;;
23001;SDS011;11667;51.706;4.856;2022-08-05T12:44:44;2.10;;;0.60;;
23001;SDS011;11667;51.706;4.856;2022-08-05T12:47:26;3.83;;;0.68;;
23001;SDS011;11667;51.706;4.856;2022-08-05T12:49:58;2.10;;;0.68;;
23001;SDS011;11667;51.706;4.856;2022-08-05T12:52:29;2.50;;;0.80;;
23001;SDS011;11667;51.706;4.856;2022-08-05T12:55:00;3.00;;;0.80;;
23001;SDS011;11667;51.706;4.856;2022-08-05T12:57:35;2.72;;;0.72;;
23001;SDS011;11667;51.706;4.856;2022-08-05T13:00:18;1.80;;;0.80;;
23001;SDS011;11667;51.706;4.856;2022-08-05T13:02:40;2.08;;;0.62;;
23001;SDS011;11667;51.706;4.856;2022-08-05T13:05:11;2.00;;;0.60;;
23001;SDS011;11667;51.706;4.856;2022-08-05T13:07:41;2.92;;;0.70;;
23001;SDS011;11667;51.706;4.856;2022-08-05T13:10:13;1.20;;;0.50;;
23001;SDS011;11667;51.706;4.856;2022-08-05T13:12:45;1.72;;;0.60;;
23001;SDS011;11667;51.706;4.856;2022-08-05T13:15:17;2.00;;;0.70;;
23001;SDS011;11667;51.706;4.856;2022-08-05T13:20:31;2.67;;;0.80;;
23001;SDS011;11667;51.706;4.856;2022-08-05T13:23:03;2.35;;;0.70;;
23001;SDS011;11667;51.706;4.856;2022-08-05T13:25:34;1.70;;;0.70;;
23001;SDS011;11667;51.706;4.856;2022-08-05T13:28:05;3.83;;;0.78;;
23001;SDS011;11667;51.706;4.856;2022-08-05T13:30:36;1.52;;;0.90;;
23001;SDS011;11667;51.706;4.856;2022-08-05T13:33:05;4.70;;;0.80;;
23001;SDS011;11667;51.706;4.856;2022-08-05T13:35:35;0.85;;;0.60;;
23001;SDS011;11667;51.706;4.856;2022-08-05T13:38:06;2.40;;;0.80;;
23001;SDS011;11667;51.706;4.856;2022-08-05T13:40:37;2.25;;;0.80;;
23001;SDS011;11667;51.706;4.856;2022-08-05T13:43:08;5.53;;;0.90;;
23001;SDS011;11667;51.706;4.856;2022-08-05T13:45:38;3.52;;;0.90;;
23001;SDS011;11667;51.706;4.856;2022-08-05T13:48:09;2.17;;;0.80;;
23001;SDS011;11667;51.706;4.856;2022-08-05T13:50:40;4.12;;;0.88;;
23001;SDS011;11667;51.706;4.856;2022-08-05T13:53:11;2.17;;;0.60;;
23001;SDS011;11667;51.706;4.856;2022-08-05T13:55:42;1.85;;;0.70;;
23001;SDS011;11667;51.706;4.856;2022-08-05T13:58:13;1.67;;;0.62;;
23001;SDS011;11667;51.706;4.856;2022-08-05T14:00:44;2.27;;;0.82;;
23001;SDS011;11667;51.706;4.856;2022-08-05T14:03:14;2.33;;;0.72;;
23001;SDS011;11667;51.706;4.856;2022-08-05T14:05:43;1.82;;;0.72;;
23001;SDS011;11667;51.706;4.856;2022-08-05T14:08:14;9.33;;;0.95;;
23001;SDS011;11667;51.706;4.856;2022-08-05T14:10:46;3.87;;;0.70;;
23001;SDS011;11667;51.706;4.856;2022-08-05T14:13:15;2.65;;;0.70;;
23001;SDS011;11667;51.706;4.856;2022-08-05T14:15:46;1.70;;;0.82;;
23001;SDS011;11667;51.706;4.856;2022-08-05T14:18:17;1.67;;;0.55;;
23001;SDS011;11667;51.706;4.856;2022-08-05T14:20:48;1.70;;;0.70;;
23001;SDS011;11667;51.706;4.856;2022-08-05T14:23:19;1.90;;;0.85;;
23001;SDS011;11667;51.706;4.856;2022-08-05T14:25:50;3.10;;;0.88;;
23001;SDS011;11667;51.706;4.856;2022-08-05T14:28:22;2.87;;;0.78;;
23001;SDS011;11667;51.706;4.856;2022-08-05T14:31:01;2.47;;;0.70;;
23001;SDS011;11667;51.706;4.856;2022-08-05T14:33:28;2.62;;;0.90;;
23001;SDS011;11667;51.706;4.856;2022-08-05T14:36:01;2.02;;;0.78;;
23001;SDS011;11667;51.706;4.856;2022-08-05T14:38:31;3.05;;;0.93;;
23001;SDS011;11667;51.706;4.856;2022-08-05T14:41:03;2.30;;;0.90;;
23001;SDS011;11667;51.706;4.856;2022-08-05T14:43:35;2.15;;;0.70;;
23001;SDS011;11667;51.706;4.856;2022-08-05T14:46:06;3.10;;;0.80;;
23001;SDS011;11667;51.706;4.856;2022-08-05T14:48:35;3.75;;;0.82;;
23001;SDS011;11667;51.706;4.856;2022-08-05T14:51:05;1.70;;;0.60;;
23001;SDS011;11667;51.706;4.856;2022-08-05T14:53:34;5.22;;;0.75;;
23001;SDS011;11667;51.706;4.856;2022-08-05T14:56:06;2.60;;;0.70;;
23001;SDS011;11667;51.706;4.856;2022-08-05T14:58:37;1.70;;;0.90;;
23001;SDS011;11667;51.706;4.856;2022-08-05T15:01:08;3.17;;;0.87;;
23001;SDS011;11667;51.706;4.856;2022-08-05T15:03:39;5.47;;;0.98;;
23001;SDS011;11667;51.706;4.856;2022-08-05T15:06:10;2.70;;;0.70;;
23001;SDS011;11667;51.706;4.856;2022-08-05T15:08:42;4.05;;;1.00;;
23001;SDS011;11667;51.706;4.856;2022-08-05T15:11:14;4.20;;;0.90;;
23001;SDS011;11667;51.706;4.856;2022-08-05T15:13:43;3.30;;;0.75;;
23001;SDS011;11667;51.706;4.856;2022-08-05T15:16:14;4.42;;;1.07;;
23001;SDS011;11667;51.706;4.856;2022-08-05T15:18:43;4.80;;;1.02;;
23001;SDS011;11667;51.706;4.856;2022-08-05T15:21:13;1.80;;;0.90;;
23001;SDS011;11667;51.706;4.856;2022-08-05T15:23:44;2.52;;;0.80;;
23001;SDS011;11667;51.706;4.856;2022-08-05T15:26:14;2.72;;;0.70;;
23001;SDS011;11667;51.706;4.856;2022-08-05T15:28:45;2.75;;;0.80;;
23001;SDS011;11667;51.706;4.856;2022-08-05T15:31:16;2.92;;;1.12;;